Time;durP1;ratioP1;P1;durP2;ratioP2;P2;SDS_P1;SDS_P2;PMS_P1;PMS_P2;Temp;Humidity;BMP_temperature;BMP_pressure;BME280_temperature;BME280_humidity;BME280_pressure;Samples;Min_cycle;Max_cycle;Signal;HPM_P1;HPM_P2
2021/08/16 00:01:33;;;;;;;15.27;8.88;;;21.10;99.10;;;;;;5077521;28;20411;-80
2021/08/16 00:03:59;;;;;;;24.10;9.00;;;21.10;99.10;;;;;;5076575;28;20677;-79
2021/08/16 00:06:24;;;;;;;15.97;8.57;;;21.10;99.10;;;;;;5076001;28;20200;-79
2021/08/16 00:08:50;;;;;;;16.60;8.57;;;21.10;99.10;;;;;;5076625;28;20172;-79
2021/08/16 00:11:16;;;;;;;19.83;9.50;;;21.10;99.10;;;;;;5076772;28;20173;-80
2021/08/16 00:13:42;;;;;;;18.10;8.63;;;21.10;99.10;;;;;;5076028;28;20216;-80
2021/08/16 00:16:07;;;;;;;17.50;8.03;;;21.10;99.10;;;;;;5088413;22;20493;-82
2021/08/16 00:18:34;;;;;;;23.80;8.80;;;21.10;99.10;;;;;;5076487;28;20200;-82
2021/08/16 00:21:02;;;;;;;20.00;8.85;;;21.00;99.10;;;;;;5076802;28;20417;-81
2021/08/16 00:23:28;;;;;;;16.98;9.65;;;21.10;99.10;;;;;;5076436;28;20188;-81
2021/08/16 00:25:54;;;;;;;18.93;8.60;;;21.10;99.10;;;;;;5076747;28;20172;-82
2021/08/16 00:28:20;;;;;;;17.43;9.27;;;21.10;99.10;;;;;;5076099;28;20414;-81
2021/08/16 00:30:46;;;;;;;15.37;7.67;;;21.10;99.10;;;;;;5076392;28;20168;-82
2021/08/16 00:33:12;;;;;;;15.87;8.00;;;21.10;99.10;;;;;;5076132;28;20466;-82
2021/08/16 00:35:37;;;;;;;13.03;7.30;;;21.10;99.10;;;;;;5076270;28;20192;-83
2021/08/16 00:38:04;;;;;;;14.27;8.03;;;21.10;99.10;;;;;;5076303;28;20418;-81
2021/08/16 00:40:31;;;;;;;16.98;8.40;;;21.10;99.10;;;;;;5076359;28;20407;-83
2021/08/16 00:42:57;;;;;;;13.65;8.48;;;21.10;99.10;;;;;;5075511;28;20599;-82
2021/08/16 00:45:25;;;;;;;11.18;7.50;;;21.10;99.10;;;;;;5075667;28;20187;-81
2021/08/16 00:47:51;;;;;;;15.50;8.02;;;21.10;99.10;;;;;;5075725;28;20556;-81
2021/08/16 00:50:16;;;;;;;14.37;7.93;;;21.10;99.10;;;;;;5074859;28;20172;-81
2021/08/16 00:52:43;;;;;;;12.47;7.33;;;21.10;99.10;;;;;;5075687;28;20453;-82
2021/08/16 00:55:11;;;;;;;21.48;8.85;;;21.20;99.10;;;;;;5075797;28;20422;-82
2021/08/16 00:57:38;;;;;;;20.10;9.25;;;21.20;99.10;;;;;;5075978;28;20753;-82
2021/08/16 01:00:06;;;;;;;16.50;8.65;;;21.20;99.10;;;;;;5075679;28;20259;-82
2021/08/16 01:02:33;;;;;;;18.35;9.95;;;21.10;99.10;;;;;;5075311;28;20234;-82
2021/08/16 01:05:03;;;;;;;20.27;9.18;;;21.20;99.10;;;;;;5075084;28;20688;-83
2021/08/16 01:07:30;;;;;;;14.07;9.27;;;21.10;99.10;;;;;;5074823;28;20173;-82
2021/08/16 01:09:55;;;;;;;19.40;9.18;;;21.10;99.10;;;;;;5074877;28;20682;-82
2021/08/16 01:12:21;;;;;;;17.00;10.03;;;21.10;99.10;;;;;;5074518;28;20204;-82
2021/08/16 01:14:47;;;;;;;15.63;7.90;;;21.00;99.10;;;;;;5074951;28;20518;-81
2021/08/16 01:17:13;;;;;;;23.47;9.90;;;21.00;99.10;;;;;;5074755;28;20762;-83
2021/08/16 01:19:40;;;;;;;19.67;9.30;;;21.00;99.10;;;;;;5074821;28;20188;-82
2021/08/16 01:22:06;;;;;;;18.83;8.75;;;21.00;99.10;;;;;;5074317;28;20180;-81
2021/08/16 01:24:32;;;;;;;19.90;10.00;;;21.00;99.10;;;;;;5074778;28;20196;-81
2021/08/16 01:27:07;;;;;;;16.20;9.13;;;21.10;99.10;;;;;;5074393;28;20411;-81
2021/08/16 01:29:32;;;;;;;17.55;10.38;;;21.10;99.10;;;;;;5075104;28;20175;-81
2021/08/16 01:32:02;;;;;;;17.93;10.07;;;21.20;99.10;;;;;;5074415;28;20177;-81
2021/08/16 01:34:32;;;;;;;17.02;9.75;;;21.20;99.10;;;;;;5074450;28;20189;-81
2021/08/16 01:36:58;;;;;;;19.00;10.20;;;21.20;99.10;;;;;;5074422;28;20203;-81
2021/08/16 01:39:25;;;;;;;22.98;9.57;;;21.10;99.10;;;;;;5074313;28;20176;-81
2021/08/16 01:41:51;;;;;;;16.98;9.75;;;21.10;99.10;;;;;;5074089;28;20175;-80
2021/08/16 01:44:19;;;;;;;17.85;9.70;;;21.00;99.10;;;;;;5073764;28;20216;-81
2021/08/16 01:46:46;;;;;;;25.52;9.40;;;21.00;99.10;;;;;;5073858;28;20267;-81
2021/08/16 01:49:13;;;;;;;16.20;10.13;;;21.00;99.10;;;;;;5073979;28;20175;-81
2021/08/16 01:51:39;;;;;;;25.52;10.90;;;21.10;99.10;;;;;;5074318;28;20173;-82
2021/08/16 01:54:06;;;;;;;24.08;11.40;;;21.10;99.10;;;;;;5074344;28;20262;-81
2021/08/16 01:56:32;;;;;;;15.27;10.25;;;21.00;99.10;;;;;;5073592;28;20172;-81
2021/08/16 01:58:58;;;;;;;22.37;9.07;;;21.00;99.10;;;;;;5074119;28;20180;-82
2021/08/16 02:01:23;;;;;;;18.27;10.20;;;21.00;99.10;;;;;;5073728;28;20407;-81
2021/08/16 02:03:49;;;;;;;18.90;10.03;;;20.90;99.10;;;;;;5074266;28;20498;-81
2021/08/16 02:06:15;;;;;;;25.40;10.87;;;20.80;99.10;;;;;;5074218;28;20180;-81
2021/08/16 02:08:41;;;;;;;24.70;10.97;;;20.90;99.10;;;;;;5073814;28;20176;-82
2021/08/16 02:11:08;;;;;;;18.75;10.68;;;20.80;99.10;;;;;;5074369;28;20414;-82
2021/08/16 02:13:34;;;;;;;18.98;10.60;;;20.90;99.10;;;;;;5073885;28;20231;-82
2021/08/16 02:16:01;;;;;;;24.63;10.60;;;20.90;99.10;;;;;;5073869;28;20462;-82
2021/08/16 02:18:27;;;;;;;19.08;11.48;;;20.90;99.10;;;;;;5074120;28;20169;-82
2021/08/16 02:20:53;;;;;;;22.07;11.10;;;20.90;99.10;;;;;;5074253;28;20195;-80
2021/08/16 02:23:19;;;;;;;22.47;11.37;;;20.90;99.10;;;;;;5073914;28;20199;-81
2021/08/16 02:25:44;;;;;;;23.13;11.20;;;20.90;99.10;;;;;;5073769;28;20673;-81
2021/08/16 02:28:10;;;;;;;20.90;10.50;;;20.90;99.10;;;;;;5073796;28;20411;-82
2021/08/16 02:30:36;;;;;;;21.87;12.70;;;20.90;99.10;;;;;;5073710;28;20469;-82
2021/08/16 02:33:02;;;;;;;18.97;10.30;;;20.90;99.10;;;;;;5074486;28;20446;-80
2021/08/16 02:35:27;;;;;;;21.07;11.07;;;20.90;99.10;;;;;;5073737;28;20200;-81
2021/08/16 02:37:53;;;;;;;20.80;11.53;;;20.80;99.10;;;;;;5073355;28;20181;-81
2021/08/16 02:40:19;;;;;;;23.65;12.80;;;20.90;99.10;;;;;;5072958;28;20164;-82
2021/08/16 02:42:45;;;;;;;24.10;12.30;;;20.80;99.10;;;;;;5072922;28;20180;-81
2021/08/16 02:45:11;;;;;;;21.03;11.03;;;20.90;99.10;;;;;;5073476;28;20201;-80
2021/08/16 02:47:38;;;;;;;29.77;14.63;;;20.90;99.10;;;;;;5073860;28;20426;-82
2021/08/16 02:50:04;;;;;;;18.42;11.40;;;20.90;99.10;;;;;;5073584;28;20403;-81
2021/08/16 02:52:30;;;;;;;20.35;10.20;;;20.90;99.10;;;;;;5074063;28;20229;-81
2021/08/16 02:54:56;;;;;;;23.07;11.47;;;20.90;99.10;;;;;;5073248;28;20739;-82
2021/08/16 02:57:22;;;;;;;22.20;11.70;;;21.00;99.10;;;;;;5073984;28;20172;-82
2021/08/16 02:59:48;;;;;;;28.23;11.90;;;21.00;99.10;;;;;;5074149;28;20179;-81
2021/08/16 03:02:14;;;;;;;17.77;11.13;;;21.00;99.10;;;;;;5073354;28;20172;-81
2021/08/16 03:04:40;;;;;;;18.20;10.27;;;21.00;99.10;;;;;;5073289;28;20733;-81
2021/08/16 03:07:06;;;;;;;20.13;11.00;;;21.00;99.10;;;;;;5073471;28;20259;-82
2021/08/16 03:09:31;;;;;;;28.80;11.43;;;21.00;99.10;;;;;;5073392;28;20551;-82
2021/08/16 03:11:57;;;;;;;22.77;12.27;;;21.10;99.10;;;;;;5073772;28;20422;-82
2021/08/16 03:14:24;;;;;;;20.42;11.10;;;21.10;99.10;;;;;;5076947;28;20196;-83
2021/08/16 03:16:50;;;;;;;22.48;10.20;;;21.20;99.10;;;;;;5077076;28;20180;-82
2021/08/16 03:19:15;;;;;;;20.33;10.90;;;21.20;99.10;;;;;;5077293;28;20527;-81
2021/08/16 03:21:41;;;;;;;23.10;10.30;;;21.20;99.10;;;;;;5076534;28;20176;-82
2021/08/16 03:24:07;;;;;;;19.23;11.63;;;21.30;99.10;;;;;;5077562;28;20192;-82
2021/08/16 03:26:33;;;;;;;19.80;12.60;;;21.20;99.10;;;;;;5076525;28;20481;-81
2021/08/16 03:28:59;;;;;;;22.23;10.67;;;21.20;99.10;;;;;;5077191;28;20246;-81
2021/08/16 03:31:25;;;;;;;25.00;9.23;;;21.20;99.10;;;;;;5078374;28;20411;-81
2021/08/16 03:33:51;;;;;;;18.37;8.87;;;21.10;99.10;;;;;;5077270;28;20231;-82
2021/08/16 03:36:16;;;;;;;21.87;9.60;;;21.10;99.10;;;;;;5077339;28;20774;-82
2021/08/16 03:38:42;;;;;;;14.40;9.10;;;21.10;99.10;;;;;;5076654;28;20204;-81
2021/08/16 03:41:08;;;;;;;14.93;9.90;;;21.10;99.10;;;;;;5077153;28;20473;-81
2021/08/16 03:43:34;;;;;;;16.05;9.35;;;21.10;99.10;;;;;;5076267;28;20196;-81
2021/08/16 03:46:00;;;;;;;22.47;9.60;;;21.10;99.10;;;;;;5076858;28;20667;-81
2021/08/16 03:48:26;;;;;;;18.30;9.23;;;21.10;99.10;;;;;;5077738;28;20230;-81
2021/08/16 03:50:51;;;;;;;21.03;9.20;;;21.10;99.10;;;;;;5077244;28;20441;-82
2021/08/16 03:53:17;;;;;;;19.20;9.97;;;21.20;99.10;;;;;;5076597;28;21057;-81
2021/08/16 03:55:43;;;;;;;21.50;9.75;;;21.20;99.10;;;;;;5077463;28;20432;-81
2021/08/16 03:58:09;;;;;;;18.65;9.25;;;21.20;99.10;;;;;;5077226;28;20172;-81
2021/08/16 04:00:35;;;;;;;15.97;8.90;;;21.20;99.10;;;;;;5076464;28;20175;-82
2021/08/16 04:03:01;;;;;;;20.70;10.03;;;21.30;99.10;;;;;;5076173;28;20509;-83
2021/08/16 04:05:27;;;;;;;23.05;11.27;;;21.40;99.10;;;;;;5076335;28;20419;-81
2021/08/16 04:07:53;;;;;;;15.43;8.93;;;21.40;99.10;;;;;;5076899;28;20180;-82
2021/08/16 04:10:19;;;;;;;22.97;10.00;;;21.40;99.10;;;;;;5076982;28;20415;-82
2021/08/16 04:12:46;;;;;;;23.77;10.38;;;21.40;99.10;;;;;;5076425;28;20192;-82
2021/08/16 04:15:14;;;;;;;21.38;10.00;;;21.40;99.10;;;;;;5075649;28;20195;-82
2021/08/16 04:17:42;;;;;;;25.83;11.20;;;21.40;99.10;;;;;;5076016;28;20179;-83
2021/08/16 04:20:09;;;;;;;21.13;10.43;;;21.40;99.10;;;;;;5076160;28;20176;-81
2021/08/16 04:22:35;;;;;;;25.02;11.40;;;21.40;99.10;;;;;;5078308;28;20193;-83
2021/08/16 04:25:01;;;;;;;25.57;10.70;;;21.40;99.10;;;;;;5074655;28;20213;-82
2021/08/16 04:27:27;;;;;;;22.07;10.37;;;21.40;99.10;;;;;;5075385;28;20415;-81
2021/08/16 04:29:53;;;;;;;18.08;10.63;;;21.30;99.10;;;;;;5075579;28;20480;-82
2021/08/16 04:32:19;;;;;;;23.33;10.17;;;21.30;99.10;;;;;;5075119;28;20203;-81
2021/08/16 04:34:45;;;;;;;23.52;10.80;;;21.30;99.10;;;;;;5075233;28;20620;-82
2021/08/16 04:37:10;;;;;;;17.47;9.77;;;21.40;99.10;;;;;;5075155;28;20176;-82
2021/08/16 04:39:36;;;;;;;20.00;10.53;;;21.40;99.10;;;;;;5075308;28;20437;-82
2021/08/16 04:42:02;;;;;;;20.33;10.70;;;21.40;98.80;;;;;;5075212;28;20674;-81
2021/08/16 04:44:28;;;;;;;18.23;9.25;;;21.40;98.50;;;;;;5074761;28;20422;-81
2021/08/16 04:46:54;;;;;;;17.07;9.03;;;21.40;98.70;;;;;;5072445;28;20172;-82
2021/08/16 04:49:20;;;;;;;23.60;9.00;;;21.50;98.40;;;;;;5065842;28;20161;-81
2021/08/16 04:51:45;;;;;;;18.90;8.90;;;21.50;97.80;;;;;;5058287;28;20495;-82
2021/08/16 04:54:11;;;;;;;15.50;8.70;;;21.50;97.50;;;;;;5055226;28;20680;-83
2021/08/16 04:56:38;;;;;;;16.00;8.67;;;21.60;97.60;;;;;;5055834;28;20165;-82
2021/08/16 04:59:04;;;;;;;20.75;9.68;;;21.50;97.10;;;;;;5054614;28;20779;-82
2021/08/16 05:01:30;;;;;;;12.32;7.40;;;21.50;96.80;;;;;;5054633;28;20169;-83
2021/08/16 05:03:56;;;;;;;16.67;8.80;;;21.60;96.50;;;;;;5055737;28;20243;-80
2021/08/16 05:06:29;;;;;;;16.23;8.00;;;21.60;96.50;;;;;;5055799;28;20183;-81
2021/08/16 05:08:58;;;;;;;25.30;9.52;;;21.60;96.80;;;;;;5055543;28;20273;-80
2021/08/16 05:11:25;;;;;;;15.38;8.25;;;21.60;96.70;;;;;;5055542;28;20268;-79
2021/08/16 05:13:51;;;;;;;20.88;9.10;;;21.60;96.20;;;;;;5055385;28;20701;-81
2021/08/16 05:16:19;;;;;;;22.10;7.53;;;21.50;95.90;;;;;;5056150;28;20184;-79
2021/08/16 05:18:45;;;;;;;19.08;8.70;;;21.50;95.80;;;;;;5056055;28;20181;-80
2021/08/16 05:21:11;;;;;;;16.27;7.05;;;21.50;95.50;;;;;;5055976;28;20661;-81
2021/08/16 05:23:37;;;;;;;17.65;7.15;;;21.50;95.20;;;;;;5054851;28;20196;-82
2021/08/16 05:26:03;;;;;;;24.20;8.13;;;21.50;95.60;;;;;;5055577;28;20747;-81
2021/08/16 05:28:29;;;;;;;15.57;7.60;;;21.50;94.90;;;;;;5056745;28;20263;-81
2021/08/16 05:30:55;;;;;;;19.10;7.60;;;21.50;94.80;;;;;;5055914;28;20255;-83
2021/08/16 05:33:21;;;;;;;14.02;7.55;;;21.50;94.70;;;;;;5056209;28;20623;-83
2021/08/16 05:35:47;;;;;;;20.83;7.50;;;21.50;94.70;;;;;;5055539;28;20222;-83
2021/08/16 05:38:13;;;;;;;18.63;8.27;;;21.40;94.80;;;;;;5055961;28;20502;-82
2021/08/16 05:40:39;;;;;;;14.18;6.43;;;21.50;94.30;;;;;;5055951;28;20193;-83
2021/08/16 05:43:05;;;;;;;13.88;7.43;;;21.50;94.10;;;;;;5055877;28;20177;-82
2021/08/16 05:45:31;;;;;;;12.77;6.60;;;21.50;93.90;;;;;;5056078;28;20206;-82
2021/08/16 05:47:57;;;;;;;15.98;8.57;;;21.40;93.70;;;;;;5056355;28;20186;-83
2021/08/16 05:50:24;;;;;;;14.10;7.50;;;21.40;93.80;;;;;;5055607;28;20641;-82
2021/08/16 05:52:51;;;;;;;12.57;5.70;;;21.40;93.80;;;;;;5055703;28;20451;-82
2021/08/16 05:55:18;;;;;;;12.35;6.45;;;21.40;94.00;;;;;;5055090;28;20264;-82
2021/08/16 05:57:44;;;;;;;23.13;8.50;;;21.30;93.20;;;;;;5054827;28;20180;-82
2021/08/16 06:00:11;;;;;;;12.88;7.30;;;21.30;93.60;;;;;;5074095;28;20259;-82
2021/08/16 06:02:37;;;;;;;11.30;6.57;;;21.30;93.50;;;;;;5074708;28;20636;-83
2021/08/16 06:05:04;;;;;;;13.07;6.50;;;21.30;93.30;;;;;;5074619;28;20196;-82
2021/08/16 06:07:30;;;;;;;18.77;6.80;;;21.40;93.20;;;;;;5074080;28;20455;-81
2021/08/16 06:09:56;;;;;;;18.43;6.90;;;21.40;93.30;;;;;;5063708;28;20177;-83
2021/08/16 06:12:22;;;;;;;12.75;6.97;;;21.40;93.10;;;;;;5066140;28;20189;-82
2021/08/16 06:14:48;;;;;;;14.63;6.05;;;21.40;92.00;;;;;;5066603;28;20192;-82
2021/08/16 06:17:15;;;;;;;11.98;5.72;;;21.30;92.10;;;;;;5062685;28;20207;-79
2021/08/16 06:19:41;;;;;;;13.97;6.37;;;21.40;91.10;;;;;;5073234;28;20164;-79
2021/08/16 06:22:07;;;;;;;10.82;6.30;;;21.30;91.80;;;;;;5077348;28;20168;-79
2021/08/16 06:24:34;;;;;;;9.98;5.70;;;21.40;91.80;;;;;;5072850;28;20231;-79
2021/08/16 06:27:00;;;;;;;13.57;7.32;;;21.40;90.10;;;;;;5063242;28;20199;-78
2021/08/16 06:29:26;;;;;;;10.07;5.83;;;21.50;88.90;;;;;;5077178;28;20536;-79
2021/08/16 06:31:52;;;;;;;16.17;5.95;;;21.50;88.80;;;;;;5076960;28;20251;-79
2021/08/16 06:34:18;;;;;;;15.73;5.67;;;21.60;88.70;;;;;;5076780;28;20394;-79
2021/08/16 06:36:50;;;;;;;12.68;5.25;;;21.70;88.70;;;;;;5075953;28;20405;-79
2021/08/16 06:39:19;;;;;;;11.55;5.30;;;21.80;88.50;;;;;;5076102;28;20160;-79
2021/08/16 06:41:49;;;;;;;12.15;5.25;;;21.80;89.10;;;;;;5072069;28;20240;-79
2021/08/16 06:44:17;;;;;;;17.15;6.22;;;21.90;88.00;;;;;;5067379;28;20192;-79
2021/08/16 06:46:44;;;;;;;10.48;4.95;;;22.00;87.80;;;;;;5076810;28;20659;-79
2021/08/16 06:49:10;;;;;;;10.02;5.63;;;22.10;87.00;;;;;;5076644;28;20195;-79
2021/08/16 06:51:36;;;;;;;13.00;5.47;;;22.20;85.90;;;;;;5077013;28;20176;-79
2021/08/16 06:54:02;;;;;;;11.73;5.40;;;22.10;87.30;;;;;;5075954;28;20204;-80
2021/08/16 06:56:27;;;;;;;9.93;6.13;;;22.10;87.60;;;;;;5074330;28;20787;-80
2021/08/16 06:58:53;;;;;;;17.13;6.27;;;22.10;86.70;;;;;;5074999;28;20414;-80
2021/08/16 07:01:25;;;;;;;10.70;4.70;;;22.00;87.40;;;;;;5075408;28;20172;-79
2021/08/16 07:03:52;;;;;;;18.67;6.28;;;21.90;86.90;;;;;;5065120;28;20523;-80
2021/08/16 07:06:19;;;;;;;9.60;4.82;;;21.90;87.00;;;;;;5055476;28;20173;-79
2021/08/16 07:08:45;;;;;;;10.13;5.65;;;21.80;87.40;;;;;;5056185;28;20641;-79
2021/08/16 07:11:11;;;;;;;12.50;7.13;;;21.80;87.00;;;;;;5055672;28;20180;-80
2021/08/16 07:13:36;;;;;;;10.18;4.63;;;21.80;86.30;;;;;;5055335;28;20459;-79
2021/08/16 07:16:02;;;;;;;13.00;4.37;;;21.70;84.90;;;;;;5055804;28;20185;-78
2021/08/16 07:18:28;;;;;;;7.90;4.40;;;21.70;84.60;;;;;;5065106;28;20407;-79
2021/08/16 07:20:54;;;;;;;9.27;4.20;;;21.70;84.60;;;;;;5075679;28;20177;-79
2021/08/16 07:23:21;;;;;;;13.40;5.10;;;21.80;83.70;;;;;;5075158;28;20495;-79
2021/08/16 07:25:47;;;;;;;13.80;5.35;;;21.70;84.20;;;;;;5075282;28;20187;-79
2021/08/16 07:28:13;;;;;;;10.68;4.78;;;21.70;84.60;;;;;;5076055;28;20223;-79
2021/08/16 07:30:39;;;;;;;8.85;5.00;;;21.80;84.20;;;;;;5074172;28;20200;-79
2021/08/16 07:33:05;;;;;;;8.30;3.90;;;21.70;84.60;;;;;;5073824;28;20565;-79
2021/08/16 07:35:31;;;;;;;14.13;4.80;;;21.80;85.10;;;;;;5073349;28;20169;-79
2021/08/16 07:37:57;;;;;;;12.00;4.17;;;21.80;85.20;;;;;;5074938;28;20168;-79
2021/08/16 07:40:23;;;;;;;12.65;4.53;;;21.80;83.40;;;;;;5074167;28;20173;-79
2021/08/16 07:42:49;;;;;;;7.65;3.70;;;21.90;82.40;;;;;;5074583;28;20226;-79
2021/08/16 07:45:16;;;;;;;8.18;4.00;;;21.90;83.10;;;;;;5074198;28;20563;-79
2021/08/16 07:47:42;;;;;;;11.05;5.03;;;22.00;83.00;;;;;;5074331;28;20176;-79
2021/08/16 07:50:11;;;;;;;15.13;4.20;;;22.10;82.60;;;;;;5075152;28;20192;-80
2021/08/16 07:52:44;;;;;;;9.48;4.50;;;22.20;82.80;;;;;;5074348;28;20199;-80
2021/08/16 07:55:12;;;;;;;7.88;4.30;;;22.40;81.90;;;;;;5073725;28;20192;-80
2021/08/16 07:57:38;;;;;;;13.13;5.15;;;22.50;81.30;;;;;;5074208;28;20263;-80
2021/08/16 08:00:06;;;;;;;8.40;3.80;;;22.60;80.10;;;;;;5076189;28;20196;-80
2021/08/16 08:02:44;;;;;;;11.90;5.22;;;22.60;79.20;;;;;;5077047;28;20184;-80
2021/08/16 08:05:15;;;;;;;9.80;4.15;;;22.60;78.90;;;;;;5077101;28;20549;-80
2021/08/16 08:07:42;;;;;;;13.48;4.10;;;22.70;78.90;;;;;;5077678;28;20173;-81
2021/08/16 08:10:09;;;;;;;13.18;3.85;;;22.80;78.70;;;;;;5076785;28;20264;-81
2021/08/16 08:12:35;;;;;;;6.18;3.97;;;22.90;78.00;;;;;;5076975;28;20556;-79
2021/08/16 08:15:02;;;;;;;6.82;3.55;;;22.80;76.30;;;;;;5077019;28;20255;-79
2021/08/16 08:17:28;;;;;;;6.95;3.78;;;22.80;77.30;;;;;;5077587;28;20176;-79
2021/08/16 08:19:55;;;;;;;9.23;5.17;;;22.80;76.70;;;;;;5057018;28;20231;-78
2021/08/16 08:22:21;;;;;;;7.68;3.25;;;22.70;76.30;;;;;;5057692;28;20419;-79
2021/08/16 08:24:47;;;;;;;9.25;3.95;;;22.60;76.60;;;;;;5057761;28;20193;-79
2021/08/16 08:27:13;;;;;;;12.93;4.10;;;22.70;77.70;;;;;;5057938;28;20307;-79
2021/08/16 08:29:42;;;;;;;7.90;3.83;;;22.80;77.30;;;;;;5058611;28;20419;-80
2021/08/16 08:32:08;;;;;;;10.00;3.78;;;22.80;76.90;;;;;;5058985;28;20169;-80
2021/08/16 08:34:34;;;;;;;12.07;4.05;;;23.00;78.30;;;;;;5057978;28;20665;-80
2021/08/16 08:37:01;;;;;;;5.57;3.22;;;23.10;75.80;;;;;;5058656;28;20166;-81
2021/08/16 08:39:27;;;;;;;8.68;3.70;;;23.20;74.90;;;;;;5057247;28;20173;-79
2021/08/16 08:41:57;;;;;;;8.10;4.37;;;23.30;75.30;;;;;;5056588;28;20650;-79
2021/08/16 08:44:24;;;;;;;10.05;3.80;;;23.30;74.40;;;;;;5056463;28;20435;-79
2021/08/16 08:46:50;;;;;;;9.15;3.78;;;23.50;75.50;;;;;;5056297;28;20169;-79
2021/08/16 08:49:16;;;;;;;9.57;4.20;;;23.50;73.50;;;;;;5057495;28;20707;-79
2021/08/16 08:51:43;;;;;;;11.13;4.53;;;23.60;74.60;;;;;;5062868;28;20177;-80
2021/08/16 08:54:09;;;;;;;7.03;4.43;;;23.70;74.20;;;;;;5078287;28;20573;-79
2021/08/16 08:56:35;;;;;;;11.45;4.47;;;23.70;73.40;;;;;;5069350;28;20173;-80
2021/08/16 08:59:01;;;;;;;7.50;3.57;;;23.80;72.80;;;;;;5077503;28;20179;-81
2021/08/16 09:01:28;;;;;;;12.43;4.68;;;23.90;73.00;;;;;;5077996;28;20414;-79
2021/08/16 09:03:55;;;;;;;10.00;3.95;;;23.90;71.60;;;;;;5077827;28;20203;-79
2021/08/16 09:06:30;;;;;;;8.52;4.22;;;23.80;73.10;;;;;;5077062;28;20173;-80
2021/08/16 09:08:57;;;;;;;12.15;4.82;;;23.80;72.10;;;;;;5077419;28;20667;-78
2021/08/16 09:11:25;;;;;;;7.82;3.60;;;23.90;72.40;;;;;;5076520;28;20195;-79
2021/08/16 09:13:56;;;;;;;13.00;4.70;;;23.90;71.70;;;;;;5076084;28;20204;-80
2021/08/16 09:16:22;;;;;;;19.08;5.50;;;23.80;72.00;;;;;;5076307;28;20545;-79
2021/08/16 09:18:49;;;;;;;10.75;4.63;;;23.70;71.90;;;;;;5076396;28;20633;-79
2021/08/16 09:21:34;;;;;;;13.50;4.43;;;23.50;73.10;;;;;;5076217;28;20176;-80
2021/08/16 09:24:00;;;;;;;10.98;4.55;;;23.50;73.70;;;;;;5076624;28;20350;-80
2021/08/16 09:26:47;;;;;;;9.05;4.75;;;23.60;71.90;;;;;;5076806;28;20310;-81
2021/08/16 09:29:14;;;;;;;14.68;5.13;;;23.70;72.40;;;;;;5074733;28;20217;-82
2021/08/16 09:32:01;;;;;;;12.05;4.72;;;23.70;70.30;;;;;;5076278;28;20173;-82
2021/08/16 09:34:40;;;;;;;13.02;5.18;;;23.50;71.70;;;;;;5076565;28;20208;-81
2021/08/16 09:37:26;;;;;;;10.30;4.00;;;23.50;71.40;;;;;;5075741;28;20196;-79
2021/08/16 09:40:07;;;;;;;11.88;5.20;;;23.40;70.90;;;;;;5075122;28;20317;-79
2021/08/16 09:42:48;;;;;;;14.60;4.75;;;23.30;70.80;;;;;;5074886;28;20176;-79
2021/08/16 09:45:27;;;;;;;13.82;5.50;;;23.20;71.20;;;;;;5074835;28;20730;-79
2021/08/16 09:47:56;;;;;;;10.35;5.22;;;23.20;71.20;;;;;;5075894;28;20176;-79
2021/08/16 09:50:22;;;;;;;8.30;4.30;;;23.10;72.60;;;;;;5075352;28;20181;-79
2021/08/16 09:52:48;;;;;;;7.47;3.92;;;23.20;72.00;;;;;;5075063;28;20197;-78
2021/08/16 09:55:14;;;;;;;10.90;4.80;;;23.10;71.30;;;;;;5075297;28;20275;-78
2021/08/16 09:57:41;;;;;;;12.40;4.43;;;22.80;71.70;;;;;;5075512;28;20200;-79
2021/08/16 10:00:07;;;;;;;12.00;4.25;;;22.80;72.60;;;;;;5075015;28;20169;-79
2021/08/16 10:02:36;;;;;;;9.10;4.70;;;22.70;73.30;;;;;;5075362;28;20249;-80
2021/08/16 10:05:02;;;;;;;9.70;3.95;;;22.60;73.10;;;;;;5075780;28;20198;-80
2021/08/16 10:07:28;;;;;;;9.40;4.70;;;22.70;73.90;;;;;;5076485;28;20503;-80
2021/08/16 10:10:02;;;;;;;6.50;3.45;;;22.80;73.30;;;;;;5075800;28;20182;-80
2021/08/16 10:12:30;;;;;;;9.35;3.47;;;23.10;73.40;;;;;;5075222;28;20200;-80
2021/08/16 10:14:58;;;;;;;11.05;4.40;;;23.20;71.20;;;;;;5075112;28;20184;-80
2021/08/16 10:17:33;;;;;;;10.90;4.32;;;23.30;69.80;;;;;;5075694;28;20164;-81
2021/08/16 10:20:00;;;;;;;12.07;3.60;;;23.30;70.90;;;;;;5076789;28;20152;-80
2021/08/16 10:22:28;;;;;;;12.25;4.35;;;23.30;70.30;;;;;;5074914;28;20172;-82
2021/08/16 10:24:54;;;;;;;11.05;3.53;;;23.50;72.40;;;;;;5075304;28;20287;-81
2021/08/16 10:27:31;;;;;;;9.63;4.07;;;23.70;69.60;;;;;;5075330;28;20604;-82
2021/08/16 10:30:04;;;;;;;12.45;3.75;;;23.80;68.10;;;;;;5074562;28;20442;-82
2021/08/16 10:32:30;;;;;;;9.38;4.20;;;23.70;69.60;;;;;;5074768;28;20715;-79
2021/08/16 10:35:06;;;;;;;11.13;3.78;;;23.50;69.50;;;;;;5074241;28;20189;-79
2021/08/16 10:37:38;;;;;;;7.90;4.28;;;23.40;69.20;;;;;;5075011;28;20175;-80
2021/08/16 10:40:21;;;;;;;7.35;3.50;;;23.20;68.80;;;;;;5075746;28;20176;-79
2021/08/16 10:42:48;;;;;;;8.55;3.45;;;23.00;70.20;;;;;;5074268;28;20583;-79
2021/08/16 10:45:28;;;;;;;9.45;3.80;;;23.00;70.80;;;;;;5073746;28;20691;-80
2021/08/16 10:48:06;;;;;;;7.60;3.67;;;23.10;70.30;;;;;;5073911;28;20537;-80
2021/08/16 10:50:32;;;;;;;11.63;4.45;;;23.10;69.60;;;;;;5074432;28;20180;-79
2021/08/16 10:53:11;;;;;;;13.45;3.80;;;23.10;69.20;;;;;;5073676;28;20208;-79
2021/08/16 10:55:39;;;;;;;10.75;3.58;;;23.20;69.50;;;;;;5073390;28;20199;-79
2021/08/16 10:58:09;;;;;;;12.43;4.30;;;23.30;68.10;;;;;;5073464;28;20168;-79
2021/08/16 11:00:36;;;;;;;11.63;3.80;;;23.40;67.60;;;;;;5073278;28;20168;-80
2021/08/16 11:03:02;;;;;;;11.38;3.72;;;23.60;66.70;;;;;;5073083;28;20168;-79
2021/08/16 11:05:30;;;;;;;12.60;4.40;;;23.70;66.20;;;;;;5072699;28;20221;-79
2021/08/16 11:07:58;;;;;;;9.68;3.67;;;23.70;66.60;;;;;;5072833;28;20866;-79
2021/08/16 11:10:24;;;;;;;13.82;4.20;;;23.50;67.70;;;;;;5073039;28;20183;-80
2021/08/16 11:12:50;;;;;;;7.90;4.23;;;23.50;67.60;;;;;;5073026;28;20200;-79
2021/08/16 11:15:17;;;;;;;24.33;4.50;;;23.70;68.00;;;;;;5073034;28;20435;-79
2021/08/16 11:17:43;;;;;;;7.82;3.30;;;23.80;67.30;;;;;;5074881;28;20633;-79
2021/08/16 11:20:15;;;;;;;13.23;3.80;;;24.00;65.10;;;;;;5073681;28;20204;-79
2021/08/16 11:22:51;;;;;;;8.27;3.97;;;24.00;65.30;;;;;;5073081;28;20222;-80
2021/08/16 11:25:17;;;;;;;24.65;4.47;;;24.10;67.10;;;;;;5073962;28;20672;-79
2021/08/16 11:27:43;;;;;;;8.88;3.55;;;24.30;65.90;;;;;;5074188;28;20181;-79
2021/08/16 11:30:11;;;;;;;7.50;3.00;;;24.40;64.50;;;;;;5073535;28;20169;-80
2021/08/16 11:32:38;;;;;;;7.57;2.83;;;24.60;65.20;;;;;;5074223;28;20204;-79
2021/08/16 11:35:06;;;;;;;8.95;3.63;;;24.70;63.00;;;;;;5076286;28;20189;-80
2021/08/16 11:37:34;;;;;;;12.90;4.00;;;24.70;63.90;;;;;;5077326;28;20565;-80
2021/08/16 11:40:00;;;;;;;8.13;3.03;;;24.30;63.70;;;;;;5077720;28;20571;-80
2021/08/16 11:42:26;;;;;;;11.27;3.88;;;24.10;65.60;;;;;;5077607;28;20172;-80
2021/08/16 11:45:02;;;;;;;9.45;3.75;;;23.90;66.30;;;;;;5077684;28;20594;-80
2021/08/16 11:47:33;;;;;;;11.82;3.60;;;24.00;66.40;;;;;;5077466;28;20210;-80
2021/08/16 11:50:01;;;;;;;8.20;3.97;;;24.40;66.40;;;;;;5078961;28;20200;-80
2021/08/16 11:52:27;;;;;;;10.45;4.10;;;24.70;63.40;;;;;;5076769;28;20168;-80
2021/08/16 11:54:53;;;;;;;14.00;4.22;;;24.90;63.10;;;;;;5077095;28;20253;-80
2021/08/16 11:57:24;;;;;;;13.37;3.30;;;25.40;61.60;;;;;;5077753;28;20177;-80
2021/08/16 11:59:54;;;;;;;6.40;3.80;;;25.70;61.90;;;;;;5077012;28;20172;-80
2021/08/16 12:02:22;;;;;;;9.50;3.70;;;25.70;60.20;;;;;;5078681;28;20169;-79
2021/08/16 12:04:52;;;;;;;9.52;3.42;;;25.90;60.30;;;;;;5077326;28;20192;-80
2021/08/16 12:07:22;;;;;;;10.45;3.42;;;26.00;58.10;;;;;;5076347;28;20168;-79
2021/08/16 12:09:49;;;;;;;13.43;3.88;;;26.00;58.50;;;;;;5076680;28;20180;-80
2021/08/16 12:12:19;;;;;;;6.20;3.28;;;25.70;59.10;;;;;;5076913;28;20271;-80
2021/08/16 12:14:46;;;;;;;7.68;3.22;;;25.30;60.90;;;;;;5077045;28;20271;-80
2021/08/16 12:17:23;;;;;;;8.23;3.38;;;25.30;60.80;;;;;;5078247;28;20184;-81
2021/08/16 12:20:04;;;;;;;8.02;4.03;;;25.30;61.40;;;;;;5078459;28;20168;-81
2021/08/16 12:22:30;;;;;;;7.68;3.88;;;25.30;60.80;;;;;;5078462;28;20259;-81
2021/08/16 12:25:06;;;;;;;6.43;3.10;;;25.20;60.80;;;;;;5077511;28;20192;-81
2021/08/16 12:27:33;;;;;;;9.45;3.28;;;25.30;59.80;;;;;;5077817;28;20201;-82
2021/08/16 12:29:58;;;;;;;8.05;3.70;;;25.20;60.30;;;;;;5078202;28;20168;-81
2021/08/16 12:32:30;;;;;;;7.53;3.20;;;25.30;59.40;;;;;;5077165;28;20210;-81
2021/08/16 12:35:01;;;;;;;13.95;3.33;;;25.30;60.00;;;;;;5077669;28;20431;-81
2021/08/16 12:37:32;;;;;;;8.02;3.50;;;25.50;59.40;;;;;;5077968;28;20164;-81
2021/08/16 12:40:21;;;;;;;6.82;3.97;;;25.60;58.40;;;;;;5077421;28;20593;-82